MSC Regina — 3FGF9 — position and weather

sailwx.info

Track history (hours):
 
Tides and Currents Weather Stations Pressure Air Temp Water Temp Dewpoint Dewpoint Depression Visibility Wind Speed Wind Dir Waves Ship Positions

MSC Regina

Last reported at 2017-Jun-24 17:27 UTC. Time now 2017-Jun-24 17:31 UTC.
Position N 40°50' E 014°17'.

Length 259 m; draft 10.3 m.

Type: Ship (hazmat cat A). MMSI: 357331980.

Date/timePositionNaut miles runAvg speedWind from/ knotsBaromVisibWave heightAir tempDewpointWater temp
2017-Jun-24 17:27N 40°50' E 014°17'0 0.0
2017-Jun-24 17:00N 40°50' E 014°17'0 0.0
2017-Jun-24 16:30N 40°50' E 014°17'0 0.0
2017-Jun-24 16:00N 40°50' E 014°17'0 0.0
2017-Jun-24 15:30N 40°50' E 014°17'0 0.0
2017-Jun-24 15:00N 40°50' E 014°17'0 0.0
2017-Jun-24 13:57N 40°50' E 014°17'0 0.0
2017-Jun-24 13:30N 40°50' E 014°17'0 0.0
2017-Jun-24 13:00N 40°50' E 014°17'0 0.0
2017-Jun-24 12:30N 40°50' E 014°17'0 0.0
2017-Jun-24 12:00N 40°50' E 014°17'0 0.0
2017-Jun-24 11:30N 40°50' E 014°17'0 0.0
2017-Jun-24 11:00N 40°50' E 014°17'0 0.0
2017-Jun-24 10:30N 40°50' E 014°17'0 0.0
2017-Jun-24 10:00N 40°50' E 014°17'0 0.3
2017-Jun-24 09:30N 40°50' E 014°17'2 4.0
2017-Jun-24 08:59N 40°48' E 014°17'3 5.8
2017-Jun-24 08:30N 40°45' E 014°17'1 1.8
2017-Jun-24 08:00N 40°45' E 014°16'0 0.5
2017-Jun-24 07:30N 40°45' E 014°15'1 1.3
2017-Jun-24 06:34N 40°44' E 014°14'1 9.5
2017-Jun-24 06:30N 40°43' E 014°14'510.0
2017-Jun-24 06:01N 40°40' E 014°10'510.0
2017-Jun-24 05:30N 40°36' E 014°05'21 7.7
2017-Jun-24 02:46N 40°20' E 013°47'2 9.6
2017-Jun-24 02:31N 40°19' E 013°50'7 9.4
2017-Jun-24 01:45N 40°15' E 013°57'6 9.5
2017-Jun-24 01:09N 40°11' E 014°03'8 9.5
2017-Jun-24 00:17N 40°06' E 014°11'3 9.6
2017-Jun-24 00:01N 40°04' E 014°14'5 9.5
2017-Jun-23 23:30N 40°01' E 014°19'5 9.5
2017-Jun-23 23:00N 39°58' E 014°24'5 9.5
2017-Jun-23 22:31N 39°55' E 014°28'50 9.3
2017-Jun-23 17:12N 39°15' E 015°07'37 9.9
2017-Jun-23 13:25N 38°46' E 015°35'610.4
2017-Jun-23 12:50N 38°41' E 015°40'1710.0
2017-Jun-23 11:10N 38°27' E 015°52'2 5.0
2017-Jun-23 10:51N 38°27' E 015°54'1 0.6
2017-Jun-23 09:54N 38°28' E 015°55'0 0.0
2017-Jun-23 09:18N 38°28' E 015°55'0 0.0
2017-Jun-23 08:57N 38°28' E 015°55'0 0.0
2017-Jun-23 08:27N 38°28' E 015°55'0 0.0
2017-Jun-22 17:18N 38°28' E 015°55'0 0.0
2017-Jun-22 17:00N 38°28' E 015°55'0 0.0
2017-Jun-22 10:06N 38°28' E 015°55'0 0.0
2017-Jun-22 09:48N 38°28' E 015°55'0 0.0
2017-Jun-22 08:54N 38°28' E 015°55'0 0.0
2017-Jun-22 08:18N 38°28' E 015°55'0 0.0
2017-Jun-22 07:48N 38°28' E 015°55'0 0.0
2017-Jun-22 07:30N 38°28' E 015°55'0 0.0
2017-Jun-22 05:30N 38°28' E 015°55'0 0.0
2017-Jun-22 05:00N 38°28' E 015°55'0 0.0
2017-Jun-22 04:30N 38°28' E 015°55'0 0.0
2017-Jun-22 03:54N 38°28' E 015°55'0 0.0
2017-Jun-21 20:30N 38°28' E 015°55'0 0.0
2017-Jun-21 19:54N 38°28' E 015°55'0 0.0
2017-Jun-21 19:12N 38°28' E 015°55'0 0.0
2017-Jun-21 19:00N 38°28' E 015°55'0 0.0
2017-Jun-21 11:42N 38°28' E 015°55'0 0.0
2017-Jun-21 11:12N 38°28' E 015°55'0 0.0
2017-Jun-21 11:00N 38°28' E 015°55'30 4.4
2017-Jun-21 04:08N 38°21' E 015°17'215.0
2017-Jun-21 04:00N 38°21' E 015°15'715.0
2017-Jun-21 03:30N 38°19' E 015°06'714.9
2017-Jun-21 03:01N 38°18' E 014°56'815.2
2017-Jun-21 02:30N 38°18' E 014°47'816.5
2017-Jun-21 02:01N 38°19' E 014°36'1217.0
2017-Jun-21 01:18N 38°19' E 014°21'1516.9
2017-Jun-21 00:24N 38°19' E 014°01'616.4
2017-Jun-21 00:01N 38°19' E 013°53'816.2
2017-Jun-20 23:31N 38°19' E 013°43'816.3
2017-Jun-20 23:01N 38°20' E 013°33'816.4
2017-Jun-20 22:30N 38°20' E 013°22'816.3
2017-Jun-20 22:00N 38°20' E 013°12'816.2
2017-Jun-20 21:30N 38°19' E 013°01'816.2
2017-Jun-20 21:00N 38°18' E 012°51'5515.7
2017-Jun-20 17:29N 38°10' E 011°42'714.7
2017-Jun-20 17:00N 38°09' E 011°33'714.4
2017-Jun-20 16:30N 38°08' E 011°24'714.3
2017-Jun-20 16:00N 38°07' E 011°15'714.1
2017-Jun-20 15:30N 38°06' E 011°06'714.0
2017-Jun-20 15:00N 38°05' E 010°57'1414.1
2017-Jun-20 14:00N 38°04' E 010°39'714.1
2017-Jun-20 13:30N 38°03' E 010°30'714.2
2017-Jun-20 13:00N 38°02' E 010°21'6313.9
2017-Jun-20 08:28N 37°53' E 009°02'1014.4
2017-Jun-20 07:48N 37°51' E 008°50'1314.6
2017-Jun-20 06:55N 37°50' E 008°34'1514.2
2017-Jun-20 05:50N 37°47' E 008°15'3713.8
2017-Jun-20 03:08N 37°41' E 007°29'1813.7
2017-Jun-20 01:49N 37°38' E 007°06'513.7
2017-Jun-20 01:29N 37°37' E 007°01'9413.6
2017-Jun-19 18:36N 37°21' E 005°04'413.3
2017-Jun-19 18:20N 37°21' E 004°60'513.8
2017-Jun-19 17:57N 37°20' E 004°53'814.0
2017-Jun-19 17:21N 37°18' E 004°43'514.3
2017-Jun-19 17:00N 37°17' E 004°37'714.4
2017-Jun-19 16:29N 37°16' E 004°27'714.5
2017-Jun-19 16:00N 37°15' E 004°19'714.4
2017-Jun-19 15:30N 37°14' E 004°10'714.4
2017-Jun-19 15:00N 37°13' E 004°01'714.3
2017-Jun-19 14:30N 37°12' E 003°52'1414.4
2017-Jun-19 13:30N 37°09' E 003°34'5916.8
2017-Jun-19 10:01N 36°59' E 002°22'015.0
2017-Jun-19 10:00N 36°59' E 002°22'815.1
2017-Jun-19 09:29N 36°57' E 002°12'1415.1
2017-Jun-19 08:34N 36°55' E 001°55'415.1
2017-Jun-19 08:20N 36°54' E 001°50'4014.7
2017-Jun-19 05:36N 36°48' E 001°01'214.9
2017-Jun-19 05:29N 36°48' E 000°59'715.0
2017-Jun-19 05:00N 36°46' E 000°50'815.1
2017-Jun-19 04:30N 36°45' E 000°41'1115.3
2017-Jun-19 03:47N 36°43' E 000°27'415.2
2017-Jun-19 03:30N 36°43' E 000°22'715.0
2017-Jun-19 03:00N 36°41' E 000°13'714.9
2017-Jun-19 02:30N 36°40' E 000°03'714.8
2017-Jun-19 02:00N 36°39' W 000°06'814.9
2017-Jun-19 01:30N 36°38' W 000°15'814.9
2017-Jun-19 00:56N 36°36' W 000°25'614.7
2017-Jun-19 00:30N 36°35' W 000°33'914.3
2017-Jun-18 23:53N 36°34' W 000°44'614.2
2017-Jun-18 23:28N 36°33' W 000°51'714.2
2017-Jun-18 23:00N 36°31' W 000°59'714.4
2017-Jun-18 22:30N 36°30' W 001°08'714.3
2017-Jun-18 21:58N 36°29' W 001°17'714.5
2017-Jun-18 21:30N 36°28' W 001°26'714.6
2017-Jun-18 21:00N 36°27' W 001°35'714.7
2017-Jun-18 20:30N 36°26' W 001°44'714.6
2017-Jun-18 20:00N 36°24' W 001°53'914.4
2017-Jun-18 19:23N 36°23' W 002°04'514.7
2017-Jun-18 19:00N 36°22' W 002°10'14915.2
2017-Jun-18 09:13N 36°00' W 005°13'316.3
2017-Jun-18 09:00N 35°59' W 005°17'816.8
2017-Jun-18 08:30N 35°57' W 005°27'1714.8
2017-Jun-18 07:23N 35°54' W 005°47'813.7
2017-Jun-18 06:49N 35°54' W 005°57'414.2
2017-Jun-18 06:30N 35°54' W 006°02'714.2
2017-Jun-18 06:01N 35°53' W 006°11'814.7
2017-Jun-18 05:28N 35°51' W 006°20'14916.1
2017-Jun-17 20:15N 34°06' W 008°28'416.9
2017-Jun-17 20:00N 34°03' W 008°31'916.9
2017-Jun-17 19:30N 33°57' W 008°39'2017.0
2017-Jun-17 18:18N 33°42' W 008°56'516.9
2017-Jun-17 18:00N 33°39' W 008°60'916.8
2017-Jun-17 17:30N 33°33' W 009°07'816.6
2017-Jun-17 17:00N 33°27' W 009°14'816.5
2017-Jun-17 16:31N 33°21' W 009°21'816.6
2017-Jun-17 16:00N 33°15' W 009°28'816.5
2017-Jun-17 15:30N 33°09' W 009°35'816.3
2017-Jun-17 15:00N 33°03' W 009°42'36816.6
2017-Jun-16 16:50N 28°42' W 014°45'617.2
2017-Jun-16 16:30N 28°38' W 014°49'917.2
2017-Jun-16 16:00N 28°32' W 014°55'917.3
2017-Jun-16 15:30N 28°26' W 015°02'917.3
2017-Jun-16 15:00N 28°19' W 015°09'1716.5
2017-Jun-16 14:00N 28°08' W 015°22'2 4.1
2017-Jun-16 13:30N 28°08' W 015°25'0 0.4
2017-Jun-16 13:00N 28°08' W 015°25'0 0.0
2017-Jun-16 12:30N 28°08' W 015°25'0 0.0
2017-Jun-16 11:51N 28°08' W 015°25'0 0.0
2017-Jun-16 11:21N 28°08' W 015°25'0 0.0
2017-Jun-16 10:51N 28°08' W 015°25'0 0.0
2017-Jun-16 10:24N 28°08' W 015°25'0 0.0
2017-Jun-16 09:54N 28°08' W 015°25'0 0.0
2017-Jun-16 09:24N 28°08' W 015°25'7 1.3
2017-Jun-16 04:10N 28°04' W 015°18'2 9.9
2017-Jun-16 03:57N 28°03' W 015°17'  
Track history (hours):
 
Tides and Currents Weather Stations Pressure Air Temp Water Temp Dewpoint Dewpoint Depression Visibility Wind Speed Wind Dir Waves Ship Positions

MSC Regina

Last reported at 2017-Jun-24 17:27 UTC. Time now 2017-Jun-24 17:31 UTC.
Position N 40°50' E 014°17'.

Length 259 m; draft 10.3 m.

Type: Ship (hazmat cat A). MMSI: 357331980.

Date/timePositionNaut miles runAvg speedWind from/ knotsBaromVisibWave heightAir tempDewpointWater temp
2017-Jun-24 17:27N 40°50' E 014°17'0 0.0
2017-Jun-24 17:00N 40°50' E 014°17'0 0.0
2017-Jun-24 16:30N 40°50' E 014°17'0 0.0
2017-Jun-24 16:00N 40°50' E 014°17'0 0.0
2017-Jun-24 15:30N 40°50' E 014°17'0 0.0
2017-Jun-24 15:00N 40°50' E 014°17'0 0.0
2017-Jun-24 13:57N 40°50' E 014°17'0 0.0
2017-Jun-24 13:30N 40°50' E 014°17'0 0.0
2017-Jun-24 13:00N 40°50' E 014°17'0 0.0
2017-Jun-24 12:30N 40°50' E 014°17'0 0.0
2017-Jun-24 12:00N 40°50' E 014°17'0 0.0
2017-Jun-24 11:30N 40°50' E 014°17'0 0.0
2017-Jun-24 11:00N 40°50' E 014°17'0 0.0
2017-Jun-24 10:30N 40°50' E 014°17'0 0.0
2017-Jun-24 10:00N 40°50' E 014°17'0 0.3
2017-Jun-24 09:30N 40°50' E 014°17'2 4.0
2017-Jun-24 08:59N 40°48' E 014°17'3 5.8
2017-Jun-24 08:30N 40°45' E 014°17'1 1.8
2017-Jun-24 08:00N 40°45' E 014°16'0 0.5
2017-Jun-24 07:30N 40°45' E 014°15'1 1.3
2017-Jun-24 06:34N 40°44' E 014°14'1 9.5
2017-Jun-24 06:30N 40°43' E 014°14'510.0
2017-Jun-24 06:01N 40°40' E 014°10'510.0
2017-Jun-24 05:30N 40°36' E 014°05'21 7.7
2017-Jun-24 02:46N 40°20' E 013°47'2 9.6
2017-Jun-24 02:31N 40°19' E 013°50'7 9.4
2017-Jun-24 01:45N 40°15' E 013°57'6 9.5
2017-Jun-24 01:09N 40°11' E 014°03'8 9.5
2017-Jun-24 00:17N 40°06' E 014°11'3 9.6
2017-Jun-24 00:01N 40°04' E 014°14'5 9.5
2017-Jun-23 23:30N 40°01' E 014°19'5 9.5
2017-Jun-23 23:00N 39°58' E 014°24'5 9.5
2017-Jun-23 22:31N 39°55' E 014°28'50 9.3
2017-Jun-23 17:12N 39°15' E 015°07'37 9.9
2017-Jun-23 13:25N 38°46' E 015°35'610.4
2017-Jun-23 12:50N 38°41' E 015°40'1710.0
2017-Jun-23 11:10N 38°27' E 015°52'2 5.0
2017-Jun-23 10:51N 38°27' E 015°54'1 0.6
2017-Jun-23 09:54N 38°28' E 015°55'0 0.0
2017-Jun-23 09:18N 38°28' E 015°55'0 0.0
2017-Jun-23 08:57N 38°28' E 015°55'0 0.0
2017-Jun-23 08:27N 38°28' E 015°55'0 0.0
2017-Jun-22 17:18N 38°28' E 015°55'0 0.0
2017-Jun-22 17:00N 38°28' E 015°55'0 0.0
2017-Jun-22 10:06N 38°28' E 015°55'0 0.0
2017-Jun-22 09:48N 38°28' E 015°55'0 0.0
2017-Jun-22 08:54N 38°28' E 015°55'0 0.0
2017-Jun-22 08:18N 38°28' E 015°55'0 0.0
2017-Jun-22 07:48N 38°28' E 015°55'0 0.0
2017-Jun-22 07:30N 38°28' E 015°55'0 0.0
2017-Jun-22 05:30N 38°28' E 015°55'0 0.0
2017-Jun-22 05:00N 38°28' E 015°55'0 0.0
2017-Jun-22 04:30N 38°28' E 015°55'0 0.0
2017-Jun-22 03:54N 38°28' E 015°55'0 0.0
2017-Jun-21 20:30N 38°28' E 015°55'0 0.0
2017-Jun-21 19:54N 38°28' E 015°55'0 0.0
2017-Jun-21 19:12N 38°28' E 015°55'0 0.0
2017-Jun-21 19:00N 38°28' E 015°55'0 0.0
2017-Jun-21 11:42N 38°28' E 015°55'0 0.0
2017-Jun-21 11:12N 38°28' E 015°55'0 0.0
2017-Jun-21 11:00N 38°28' E 015°55'30 4.4
2017-Jun-21 04:08N 38°21' E 015°17'215.0
2017-Jun-21 04:00N 38°21' E 015°15'715.0
2017-Jun-21 03:30N 38°19' E 015°06'714.9
2017-Jun-21 03:01N 38°18' E 014°56'815.2
2017-Jun-21 02:30N 38°18' E 014°47'816.5
2017-Jun-21 02:01N 38°19' E 014°36'1217.0
2017-Jun-21 01:18N 38°19' E 014°21'1516.9
2017-Jun-21 00:24N 38°19' E 014°01'616.4
2017-Jun-21 00:01N 38°19' E 013°53'816.2
2017-Jun-20 23:31N 38°19' E 013°43'816.3
2017-Jun-20 23:01N 38°20' E 013°33'816.4
2017-Jun-20 22:30N 38°20' E 013°22'816.3
2017-Jun-20 22:00N 38°20' E 013°12'816.2
2017-Jun-20 21:30N 38°19' E 013°01'816.2
2017-Jun-20 21:00N 38°18' E 012°51'5515.7
2017-Jun-20 17:29N 38°10' E 011°42'714.7
2017-Jun-20 17:00N 38°09' E 011°33'714.4
2017-Jun-20 16:30N 38°08' E 011°24'714.3
2017-Jun-20 16:00N 38°07' E 011°15'714.1
2017-Jun-20 15:30N 38°06' E 011°06'714.0
2017-Jun-20 15:00N 38°05' E 010°57'1414.1
2017-Jun-20 14:00N 38°04' E 010°39'714.1
2017-Jun-20 13:30N 38°03' E 010°30'714.2
2017-Jun-20 13:00N 38°02' E 010°21'6313.9
2017-Jun-20 08:28N 37°53' E 009°02'1014.4
2017-Jun-20 07:48N 37°51' E 008°50'1314.6
2017-Jun-20 06:55N 37°50' E 008°34'1514.2
2017-Jun-20 05:50N 37°47' E 008°15'3713.8
2017-Jun-20 03:08N 37°41' E 007°29'1813.7
2017-Jun-20 01:49N 37°38' E 007°06'513.7
2017-Jun-20 01:29N 37°37' E 007°01'9413.6
2017-Jun-19 18:36N 37°21' E 005°04'413.3
2017-Jun-19 18:20N 37°21' E 004°60'513.8
2017-Jun-19 17:57N 37°20' E 004°53'814.0
2017-Jun-19 17:21N 37°18' E 004°43'514.3
2017-Jun-19 17:00N 37°17' E 004°37'714.4
2017-Jun-19 16:29N 37°16' E 004°27'714.5
2017-Jun-19 16:00N 37°15' E 004°19'714.4
2017-Jun-19 15:30N 37°14' E 004°10'714.4
2017-Jun-19 15:00N 37°13' E 004°01'714.3
2017-Jun-19 14:30N 37°12' E 003°52'1414.4
2017-Jun-19 13:30N 37°09' E 003°34'5916.8
2017-Jun-19 10:01N 36°59' E 002°22'015.0
2017-Jun-19 10:00N 36°59' E 002°22'815.1
2017-Jun-19 09:29N 36°57' E 002°12'1415.1
2017-Jun-19 08:34N 36°55' E 001°55'415.1
2017-Jun-19 08:20N 36°54' E 001°50'4014.7
2017-Jun-19 05:36N 36°48' E 001°01'214.9
2017-Jun-19 05:29N 36°48' E 000°59'715.0
2017-Jun-19 05:00N 36°46' E 000°50'815.1
2017-Jun-19 04:30N 36°45' E 000°41'1115.3
2017-Jun-19 03:47N 36°43' E 000°27'415.2
2017-Jun-19 03:30N 36°43' E 000°22'715.0
2017-Jun-19 03:00N 36°41' E 000°13'714.9
2017-Jun-19 02:30N 36°40' E 000°03'714.8
2017-Jun-19 02:00N 36°39' W 000°06'814.9
2017-Jun-19 01:30N 36°38' W 000°15'814.9
2017-Jun-19 00:56N 36°36' W 000°25'614.7
2017-Jun-19 00:30N 36°35' W 000°33'914.3
2017-Jun-18 23:53N 36°34' W 000°44'614.2
2017-Jun-18 23:28N 36°33' W 000°51'714.2
2017-Jun-18 23:00N 36°31' W 000°59'714.4
2017-Jun-18 22:30N 36°30' W 001°08'714.3
2017-Jun-18 21:58N 36°29' W 001°17'714.5
2017-Jun-18 21:30N 36°28' W 001°26'714.6
2017-Jun-18 21:00N 36°27' W 001°35'714.7
2017-Jun-18 20:30N 36°26' W 001°44'714.6
2017-Jun-18 20:00N 36°24' W 001°53'914.4
2017-Jun-18 19:23N 36°23' W 002°04'514.7
2017-Jun-18 19:00N 36°22' W 002°10'14915.2
2017-Jun-18 09:13N 36°00' W 005°13'316.3
2017-Jun-18 09:00N 35°59' W 005°17'816.8
2017-Jun-18 08:30N 35°57' W 005°27'1714.8
2017-Jun-18 07:23N 35°54' W 005°47'813.7
2017-Jun-18 06:49N 35°54' W 005°57'414.2
2017-Jun-18 06:30N 35°54' W 006°02'714.2
2017-Jun-18 06:01N 35°53' W 006°11'814.7
2017-Jun-18 05:28N 35°51' W 006°20'14916.1
2017-Jun-17 20:15N 34°06' W 008°28'416.9
2017-Jun-17 20:00N 34°03' W 008°31'916.9
2017-Jun-17 19:30N 33°57' W 008°39'2017.0
2017-Jun-17 18:18N 33°42' W 008°56'516.9
2017-Jun-17 18:00N 33°39' W 008°60'916.8
2017-Jun-17 17:30N 33°33' W 009°07'816.6
2017-Jun-17 17:00N 33°27' W 009°14'816.5
2017-Jun-17 16:31N 33°21' W 009°21'816.6
2017-Jun-17 16:00N 33°15' W 009°28'816.5
2017-Jun-17 15:30N 33°09' W 009°35'816.3
2017-Jun-17 15:00N 33°03' W 009°42'36816.6
2017-Jun-16 16:50N 28°42' W 014°45'617.2
2017-Jun-16 16:30N 28°38' W 014°49'917.2
2017-Jun-16 16:00N 28°32' W 014°55'917.3
2017-Jun-16 15:30N 28°26' W 015°02'917.3
2017-Jun-16 15:00N 28°19' W 015°09'1716.5
2017-Jun-16 14:00N 28°08' W 015°22'2 4.1
2017-Jun-16 13:30N 28°08' W 015°25'0 0.4
2017-Jun-16 13:00N 28°08' W 015°25'0 0.0
2017-Jun-16 12:30N 28°08' W 015°25'0 0.0
2017-Jun-16 11:51N 28°08' W 015°25'0 0.0
2017-Jun-16 11:21N 28°08' W 015°25'0 0.0
2017-Jun-16 10:51N 28°08' W 015°25'0 0.0
2017-Jun-16 10:24N 28°08' W 015°25'0 0.0
2017-Jun-16 09:54N 28°08' W 015°25'0 0.0
2017-Jun-16 09:24N 28°08' W 015°25'7 1.3
2017-Jun-16 04:10N 28°04' W 015°18'2 9.9
2017-Jun-16 03:57N 28°03' W 015°17'  

Dump ship's entire track history